sensor_id;sensor_type;location;lat;lon;timestamp;P1;durP1;ratioP1;P2;durP2;ratioP2
43857;SDS011;29507;51.284;5.758;2022-09-09T00:01:51;4.15;;;1.42;;
43857;SDS011;29507;51.284;5.758;2022-09-09T00:12:19;2.92;;;1.25;;
43857;SDS011;29507;51.284;5.758;2022-09-09T00:14:51;3.33;;;1.15;;
43857;SDS011;29507;51.284;5.758;2022-09-09T00:19:55;3.53;;;1.25;;
43857;SDS011;29507;51.284;5.758;2022-09-09T00:22:25;4.90;;;1.63;;
43857;SDS011;29507;51.284;5.758;2022-09-09T00:24:56;6.07;;;1.70;;
43857;SDS011;29507;51.284;5.758;2022-09-09T00:32:41;3.28;;;1.63;;
43857;SDS011;29507;51.284;5.758;2022-09-09T00:35:16;6.20;;;1.92;;
43857;SDS011;29507;51.284;5.758;2022-09-09T00:37:51;3.33;;;1.42;;
43857;SDS011;29507;51.284;5.758;2022-09-09T00:40:27;7.60;;;1.98;;
43857;SDS011;29507;51.284;5.758;2022-09-09T00:48:31;4.25;;;1.35;;
43857;SDS011;29507;51.284;5.758;2022-09-09T00:51:09;6.35;;;2.28;;
43857;SDS011;29507;51.284;5.758;2022-09-09T00:53:57;6.43;;;2.10;;
43857;SDS011;29507;51.284;5.758;2022-09-09T00:56:42;4.18;;;2.10;;
43857;SDS011;29507;51.284;5.758;2022-09-09T01:01:47;4.97;;;1.90;;
43857;SDS011;29507;51.284;5.758;2022-09-09T01:04:16;4.38;;;1.77;;
43857;SDS011;29507;51.284;5.758;2022-09-09T01:06:46;7.00;;;2.10;;
43857;SDS011;29507;51.284;5.758;2022-09-09T01:14:50;2.92;;;1.63;;
43857;SDS011;29507;51.284;5.758;2022-09-09T01:17:36;7.00;;;1.85;;
43857;SDS011;29507;51.284;5.758;2022-09-09T01:20:17;6.35;;;2.75;;
43857;SDS011;29507;51.284;5.758;2022-09-09T01:23:08;5.93;;;2.42;;
43857;SDS011;29507;51.284;5.758;2022-09-09T01:26:17;4.68;;;1.67;;
43857;SDS011;29507;51.284;5.758;2022-09-09T01:28:49;4.35;;;2.20;;
43857;SDS011;29507;51.284;5.758;2022-09-09T01:31:21;3.60;;;2.00;;
43857;SDS011;29507;51.284;5.758;2022-09-09T01:33:52;4.32;;;2.50;;
43857;SDS011;29507;51.284;5.758;2022-09-09T01:36:53;4.75;;;1.90;;
43857;SDS011;29507;51.284;5.758;2022-09-09T01:39:10;9.90;;;2.40;;
43857;SDS011;29507;51.284;5.758;2022-09-09T01:41:37;4.30;;;2.00;;
43857;SDS011;29507;51.284;5.758;2022-09-09T01:44:03;9.10;;;2.20;;
43857;SDS011;29507;51.284;5.758;2022-09-09T01:46:29;5.00;;;2.30;;
43857;SDS011;29507;51.284;5.758;2022-09-09T01:48:55;7.72;;;2.42;;
43857;SDS011;29507;51.284;5.758;2022-09-09T01:51:22;7.88;;;2.70;;
43857;SDS011;29507;51.284;5.758;2022-09-09T01:53:48;8.35;;;2.25;;
43857;SDS011;29507;51.284;5.758;2022-09-09T01:58:55;4.07;;;2.10;;
43857;SDS011;29507;51.284;5.758;2022-09-09T02:04:10;6.63;;;1.83;;
43857;SDS011;29507;51.284;5.758;2022-09-09T02:06:57;4.97;;;2.30;;
43857;SDS011;29507;51.284;5.758;2022-09-09T02:09:25;4.90;;;1.95;;
43857;SDS011;29507;51.284;5.758;2022-09-09T02:11:56;9.43;;;2.28;;
43857;SDS011;29507;51.284;5.758;2022-09-09T02:14:34;5.53;;;2.20;;
43857;SDS011;29507;51.284;5.758;2022-09-09T02:17:08;6.60;;;1.92;;
43857;SDS011;29507;51.284;5.758;2022-09-09T02:19:36;6.80;;;2.05;;
43857;SDS011;29507;51.284;5.758;2022-09-09T02:22:19;5.35;;;1.73;;
43857;SDS011;29507;51.284;5.758;2022-09-09T02:24:47;5.28;;;2.10;;
43857;SDS011;29507;51.284;5.758;2022-09-09T02:29:43;4.00;;;1.83;;
43857;SDS011;29507;51.284;5.758;2022-09-09T02:32:12;6.03;;;2.00;;
43857;SDS011;29507;51.284;5.758;2022-09-09T02:34:43;5.07;;;1.95;;
43857;SDS011;29507;51.284;5.758;2022-09-09T02:37:15;6.68;;;2.25;;
43857;SDS011;29507;51.284;5.758;2022-09-09T02:39:43;9.85;;;2.25;;
43857;SDS011;29507;51.284;5.758;2022-09-09T02:42:09;7.78;;;2.38;;
43857;SDS011;29507;51.284;5.758;2022-09-09T02:44:35;4.05;;;1.92;;
43857;SDS011;29507;51.284;5.758;2022-09-09T02:49:37;5.82;;;2.10;;
43857;SDS011;29507;51.284;5.758;2022-09-09T02:52:08;10.13;;;2.30;;
43857;SDS011;29507;51.284;5.758;2022-09-09T02:54:42;4.95;;;1.70;;
43857;SDS011;29507;51.284;5.758;2022-09-09T02:59:39;7.45;;;2.13;;
43857;SDS011;29507;51.284;5.758;2022-09-09T03:02:05;4.65;;;2.03;;
43857;SDS011;29507;51.284;5.758;2022-09-09T03:04:30;8.02;;;2.28;;
43857;SDS011;29507;51.284;5.758;2022-09-09T03:06:57;8.18;;;2.13;;
43857;SDS011;29507;51.284;5.758;2022-09-09T03:09:23;7.28;;;2.10;;
43857;SDS011;29507;51.284;5.758;2022-09-09T03:11:51;9.63;;;3.00;;
43857;SDS011;29507;51.284;5.758;2022-09-09T03:14:17;9.48;;;2.45;;
43857;SDS011;29507;51.284;5.758;2022-09-09T03:16:46;8.60;;;2.75;;
43857;SDS011;29507;51.284;5.758;2022-09-09T03:19:12;6.13;;;2.22;;
43857;SDS011;29507;51.284;5.758;2022-09-09T03:21:37;10.52;;;2.40;;
43857;SDS011;29507;51.284;5.758;2022-09-09T03:24:04;5.93;;;2.65;;
43857;SDS011;29507;51.284;5.758;2022-09-09T03:26:30;8.40;;;3.25;;
43857;SDS011;29507;51.284;5.758;2022-09-09T03:28:56;9.80;;;2.67;;
43857;SDS011;29507;51.284;5.758;2022-09-09T03:31:22;5.15;;;2.75;;
43857;SDS011;29507;51.284;5.758;2022-09-09T03:33:47;7.05;;;2.92;;
43857;SDS011;29507;51.284;5.758;2022-09-09T03:36:13;6.80;;;2.78;;
43857;SDS011;29507;51.284;5.758;2022-09-09T03:38:40;8.93;;;2.45;;
43857;SDS011;29507;51.284;5.758;2022-09-09T03:41:06;7.15;;;2.53;;
43857;SDS011;29507;51.284;5.758;2022-09-09T03:43:33;7.85;;;2.22;;
43857;SDS011;29507;51.284;5.758;2022-09-09T03:45:58;5.88;;;2.60;;
43857;SDS011;29507;51.284;5.758;2022-09-09T03:48:24;10.07;;;2.58;;
43857;SDS011;29507;51.284;5.758;2022-09-09T03:50:52;7.55;;;2.40;;
43857;SDS011;29507;51.284;5.758;2022-09-09T03:53:19;4.68;;;2.33;;
43857;SDS011;29507;51.284;5.758;2022-09-09T03:55:46;5.05;;;2.00;;
43857;SDS011;29507;51.284;5.758;2022-09-09T03:58:15;7.80;;;1.92;;
43857;SDS011;29507;51.284;5.758;2022-09-09T04:00:41;9.48;;;3.00;;
43857;SDS011;29507;51.284;5.758;2022-09-09T04:03:11;8.73;;;2.17;;
43857;SDS011;29507;51.284;5.758;2022-09-09T04:05:38;7.53;;;2.33;;
43857;SDS011;29507;51.284;5.758;2022-09-09T04:08:07;9.40;;;2.70;;
43857;SDS011;29507;51.284;5.758;2022-09-09T04:10:33;9.45;;;2.40;;
43857;SDS011;29507;51.284;5.758;2022-09-09T04:13:01;8.00;;;3.15;;
43857;SDS011;29507;51.284;5.758;2022-09-09T04:15:27;13.20;;;2.47;;
43857;SDS011;29507;51.284;5.758;2022-09-09T04:17:53;7.38;;;2.63;;
43857;SDS011;29507;51.284;5.758;2022-09-09T04:20:18;8.90;;;2.67;;
43857;SDS011;29507;51.284;5.758;2022-09-09T04:22:44;6.22;;;2.10;;
43857;SDS011;29507;51.284;5.758;2022-09-09T04:25:09;4.57;;;2.30;;
43857;SDS011;29507;51.284;5.758;2022-09-09T04:27:35;7.57;;;2.33;;
43857;SDS011;29507;51.284;5.758;2022-09-09T04:30:01;7.72;;;2.65;;
43857;SDS011;29507;51.284;5.758;2022-09-09T04:32:26;8.57;;;2.40;;
43857;SDS011;29507;51.284;5.758;2022-09-09T04:34:52;9.52;;;2.75;;
43857;SDS011;29507;51.284;5.758;2022-09-09T04:37:18;9.55;;;2.42;;
43857;SDS011;29507;51.284;5.758;2022-09-09T04:39:43;8.30;;;2.30;;
43857;SDS011;29507;51.284;5.758;2022-09-09T04:42:10;7.15;;;2.33;;
43857;SDS011;29507;51.284;5.758;2022-09-09T04:44:37;6.15;;;2.60;;
43857;SDS011;29507;51.284;5.758;2022-09-09T04:47:04;5.65;;;1.73;;
43857;SDS011;29507;51.284;5.758;2022-09-09T04:49:29;9.93;;;2.00;;
43857;SDS011;29507;51.284;5.758;2022-09-09T04:51:56;9.52;;;1.98;;
43857;SDS011;29507;51.284;5.758;2022-09-09T04:54:22;11.43;;;2.22;;
43857;SDS011;29507;51.284;5.758;2022-09-09T04:56:49;8.45;;;1.88;;
43857;SDS011;29507;51.284;5.758;2022-09-09T04:59:15;10.90;;;1.88;;
43857;SDS011;29507;51.284;5.758;2022-09-09T05:01:41;6.10;;;1.98;;
43857;SDS011;29507;51.284;5.758;2022-09-09T05:04:07;7.30;;;1.80;;
43857;SDS011;29507;51.284;5.758;2022-09-09T05:06:33;6.60;;;2.03;;
43857;SDS011;29507;51.284;5.758;2022-09-09T05:09:01;15.60;;;2.40;;
43857;SDS011;29507;51.284;5.758;2022-09-09T05:11:28;5.43;;;2.10;;
43857;SDS011;29507;51.284;5.758;2022-09-09T05:13:55;10.30;;;2.00;;
43857;SDS011;29507;51.284;5.758;2022-09-09T05:16:21;7.03;;;2.22;;
43857;SDS011;29507;51.284;5.758;2022-09-09T05:18:48;8.73;;;2.03;;
43857;SDS011;29507;51.284;5.758;2022-09-09T05:21:16;6.22;;;2.55;;
43857;SDS011;29507;51.284;5.758;2022-09-09T05:23:44;8.05;;;2.17;;
43857;SDS011;29507;51.284;5.758;2022-09-09T05:26:14;10.07;;;2.38;;
43857;SDS011;29507;51.284;5.758;2022-09-09T05:28:41;7.47;;;1.98;;
43857;SDS011;29507;51.284;5.758;2022-09-09T05:31:08;7.60;;;1.90;;
43857;SDS011;29507;51.284;5.758;2022-09-09T05:33:37;9.73;;;2.38;;
43857;SDS011;29507;51.284;5.758;2022-09-09T05:36:06;6.07;;;2.42;;
43857;SDS011;29507;51.284;5.758;2022-09-09T05:38:33;15.35;;;2.67;;
43857;SDS011;29507;51.284;5.758;2022-09-09T05:41:00;10.90;;;2.53;;
43857;SDS011;29507;51.284;5.758;2022-09-09T05:43:27;7.95;;;2.47;;
43857;SDS011;29507;51.284;5.758;2022-09-09T05:46:04;12.20;;;1.83;;
43857;SDS011;29507;51.284;5.758;2022-09-09T05:48:37;5.65;;;2.40;;
43857;SDS011;29507;51.284;5.758;2022-09-09T05:51:08;11.98;;;2.22;;
43857;SDS011;29507;51.284;5.758;2022-09-09T05:53:40;9.15;;;1.88;;
43857;SDS011;29507;51.284;5.758;2022-09-09T05:56:10;11.52;;;2.00;;
43857;SDS011;29507;51.284;5.758;2022-09-09T05:58:40;10.40;;;1.90;;
43857;SDS011;29507;51.284;5.758;2022-09-09T06:01:14;5.97;;;1.77;;
43857;SDS011;29507;51.284;5.758;2022-09-09T06:03:42;6.40;;;1.52;;
43857;SDS011;29507;51.284;5.758;2022-09-09T06:06:10;4.85;;;1.50;;
43857;SDS011;29507;51.284;5.758;2022-09-09T06:08:38;5.40;;;1.30;;
43857;SDS011;29507;51.284;5.758;2022-09-09T06:11:05;8.27;;;2.15;;
43857;SDS011;29507;51.284;5.758;2022-09-09T06:13:32;8.25;;;1.60;;
43857;SDS011;29507;51.284;5.758;2022-09-09T06:15:58;13.77;;;1.80;;
43857;SDS011;29507;51.284;5.758;2022-09-09T06:18:25;10.32;;;2.08;;
43857;SDS011;29507;51.284;5.758;2022-09-09T06:23:24;9.70;;;1.65;;
43857;SDS011;29507;51.284;5.758;2022-09-09T06:25:50;7.53;;;2.05;;
43857;SDS011;29507;51.284;5.758;2022-09-09T06:28:17;7.90;;;1.75;;
43857;SDS011;29507;51.284;5.758;2022-09-09T06:30:43;8.57;;;1.95;;
43857;SDS011;29507;51.284;5.758;2022-09-09T06:33:09;6.57;;;1.80;;
43857;SDS011;29507;51.284;5.758;2022-09-09T06:35:35;6.40;;;1.80;;
43857;SDS011;29507;51.284;5.758;2022-09-09T06:38:01;9.10;;;2.20;;
43857;SDS011;29507;51.284;5.758;2022-09-09T06:40:26;11.02;;;2.47;;
43857;SDS011;29507;51.284;5.758;2022-09-09T06:42:52;7.63;;;2.08;;
43857;SDS011;29507;51.284;5.758;2022-09-09T06:45:18;10.63;;;1.60;;
43857;SDS011;29507;51.284;5.758;2022-09-09T06:47:44;9.18;;;1.48;;
43857;SDS011;29507;51.284;5.758;2022-09-09T06:50:09;4.47;;;1.08;;
43857;SDS011;29507;51.284;5.758;2022-09-09T06:52:36;7.00;;;1.33;;
43857;SDS011;29507;51.284;5.758;2022-09-09T06:55:02;5.93;;;1.38;;
43857;SDS011;29507;51.284;5.758;2022-09-09T06:57:28;6.38;;;1.70;;
43857;SDS011;29507;51.284;5.758;2022-09-09T06:59:54;10.15;;;2.35;;
43857;SDS011;29507;51.284;5.758;2022-09-09T07:02:19;5.63;;;1.58;;
43857;SDS011;29507;51.284;5.758;2022-09-09T07:04:46;7.03;;;1.40;;
43857;SDS011;29507;51.284;5.758;2022-09-09T07:07:11;6.97;;;1.75;;
43857;SDS011;29507;51.284;5.758;2022-09-09T07:09:38;3.40;;;1.20;;
43857;SDS011;29507;51.284;5.758;2022-09-09T07:12:05;7.22;;;1.02;;
43857;SDS011;29507;51.284;5.758;2022-09-09T07:14:31;8.50;;;1.52;;
43857;SDS011;29507;51.284;5.758;2022-09-09T07:16:58;7.35;;;1.23;;
43857;SDS011;29507;51.284;5.758;2022-09-09T07:19:25;6.80;;;1.77;;
43857;SDS011;29507;51.284;5.758;2022-09-09T07:21:50;5.40;;;1.23;;
43857;SDS011;29507;51.284;5.758;2022-09-09T07:24:16;10.25;;;1.40;;
43857;SDS011;29507;51.284;5.758;2022-09-09T07:26:42;6.70;;;0.93;;
43857;SDS011;29507;51.284;5.758;2022-09-09T07:29:08;3.58;;;1.00;;
43857;SDS011;29507;51.284;5.758;2022-09-09T07:31:35;9.05;;;1.15;;
43857;SDS011;29507;51.284;5.758;2022-09-09T07:34:03;5.65;;;1.05;;
43857;SDS011;29507;51.284;5.758;2022-09-09T07:36:30;4.55;;;1.30;;
43857;SDS011;29507;51.284;5.758;2022-09-09T07:39:01;4.43;;;1.10;;
43857;SDS011;29507;51.284;5.758;2022-09-09T07:41:33;4.10;;;0.82;;
43857;SDS011;29507;51.284;5.758;2022-09-09T07:44:08;4.50;;;1.13;;
43857;SDS011;29507;51.284;5.758;2022-09-09T07:46:36;5.40;;;1.17;;
43857;SDS011;29507;51.284;5.758;2022-09-09T07:49:03;9.60;;;1.08;;
43857;SDS011;29507;51.284;5.758;2022-09-09T07:51:30;6.18;;;0.98;;
43857;SDS011;29507;51.284;5.758;2022-09-09T07:53:59;5.37;;;1.20;;
43857;SDS011;29507;51.284;5.758;2022-09-09T07:56:27;7.10;;;1.38;;
43857;SDS011;29507;51.284;5.758;2022-09-09T07:58:53;8.43;;;1.80;;
43857;SDS011;29507;51.284;5.758;2022-09-09T08:01:22;6.10;;;1.33;;
43857;SDS011;29507;51.284;5.758;2022-09-09T08:04:09;7.80;;;1.05;;
43857;SDS011;29507;51.284;5.758;2022-09-09T08:06:40;5.10;;;1.00;;
43857;SDS011;29507;51.284;5.758;2022-09-09T08:09:08;7.38;;;1.10;;
43857;SDS011;29507;51.284;5.758;2022-09-09T08:11:35;7.57;;;0.80;;
43857;SDS011;29507;51.284;5.758;2022-09-09T08:14:02;4.35;;;0.85;;
43857;SDS011;29507;51.284;5.758;2022-09-09T08:16:29;5.47;;;0.90;;
43857;SDS011;29507;51.284;5.758;2022-09-09T08:18:57;4.70;;;0.98;;
43857;SDS011;29507;51.284;5.758;2022-09-09T08:21:27;6.43;;;1.05;;
43857;SDS011;29507;51.284;5.758;2022-09-09T08:23:55;5.95;;;1.17;;
43857;SDS011;29507;51.284;5.758;2022-09-09T08:26:22;3.97;;;1.30;;
43857;SDS011;29507;51.284;5.758;2022-09-09T08:28:54;5.82;;;1.40;;
43857;SDS011;29507;51.284;5.758;2022-09-09T08:31:25;4.95;;;0.90;;
43857;SDS011;29507;51.284;5.758;2022-09-09T08:33:54;5.93;;;0.88;;
43857;SDS011;29507;51.284;5.758;2022-09-09T08:36:21;7.25;;;0.95;;
43857;SDS011;29507;51.284;5.758;2022-09-09T08:38:49;9.15;;;1.05;;
43857;SDS011;29507;51.284;5.758;2022-09-09T08:44:06;5.05;;;1.27;;
43857;SDS011;29507;51.284;5.758;2022-09-09T08:57:56;6.55;;;1.20;;
43857;SDS011;29507;51.284;5.758;2022-09-09T09:00:28;13.68;;;1.05;;
43857;SDS011;29507;51.284;5.758;2022-09-09T09:03:15;8.80;;;1.27;;
43857;SDS011;29507;51.284;5.758;2022-09-09T09:05:59;5.82;;;1.25;;
43857;SDS011;29507;51.284;5.758;2022-09-09T09:08:44;5.53;;;1.02;;
43857;SDS011;29507;51.284;5.758;2022-09-09T09:11:20;7.93;;;1.20;;
43857;SDS011;29507;51.284;5.758;2022-09-09T09:18:59;6.25;;;1.73;;
43857;SDS011;29507;51.284;5.758;2022-09-09T09:21:39;3.13;;;0.90;;
43857;SDS011;29507;51.284;5.758;2022-09-09T09:24:23;6.82;;;1.20;;
43857;SDS011;29507;51.284;5.758;2022-09-09T09:26:57;4.90;;;1.50;;
43857;SDS011;29507;51.284;5.758;2022-09-09T09:29:32;6.63;;;0.80;;
43857;SDS011;29507;51.284;5.758;2022-09-09T09:32:00;6.47;;;1.48;;
43857;SDS011;29507;51.284;5.758;2022-09-09T09:34:28;3.92;;;1.13;;
43857;SDS011;29507;51.284;5.758;2022-09-09T09:36:54;4.93;;;0.80;;
43857;SDS011;29507;51.284;5.758;2022-09-09T09:39:22;6.63;;;0.82;;
43857;SDS011;29507;51.284;5.758;2022-09-09T09:41:48;7.78;;;0.88;;
43857;SDS011;29507;51.284;5.758;2022-09-09T09:49:39;8.40;;;1.23;;
43857;SDS011;29507;51.284;5.758;2022-09-09T09:52:17;7.13;;;0.98;;
43857;SDS011;29507;51.284;5.758;2022-09-09T09:54:50;6.72;;;1.10;;
43857;SDS011;29507;51.284;5.758;2022-09-09T09:57:17;4.43;;;0.95;;
43857;SDS011;29507;51.284;5.758;2022-09-09T09:59:43;4.22;;;0.77;;
43857;SDS011;29507;51.284;5.758;2022-09-09T10:02:18;6.32;;;1.20;;
43857;SDS011;29507;51.284;5.758;2022-09-09T10:04:46;8.20;;;1.30;;
43857;SDS011;29507;51.284;5.758;2022-09-09T10:07:19;4.85;;;0.82;;
43857;SDS011;29507;51.284;5.758;2022-09-09T10:09:47;3.53;;;0.90;;
43857;SDS011;29507;51.284;5.758;2022-09-09T10:12:23;6.50;;;1.10;;
43857;SDS011;29507;51.284;5.758;2022-09-09T10:28:54;4.00;;;0.93;;
43857;SDS011;29507;51.284;5.758;2022-09-09T10:31:40;4.68;;;0.90;;
43857;SDS011;29507;51.284;5.758;2022-09-09T10:34:45;4.43;;;0.80;;
43857;SDS011;29507;51.284;5.758;2022-09-09T10:40:27;3.10;;;0.68;;
43857;SDS011;29507;51.284;5.758;2022-09-09T10:45:44;3.03;;;1.10;;
43857;SDS011;29507;51.284;5.758;2022-09-09T10:51:07;2.90;;;0.63;;
43857;SDS011;29507;51.284;5.758;2022-09-09T10:53:40;4.00;;;0.85;;
43857;SDS011;29507;51.284;5.758;2022-09-09T10:56:18;6.53;;;1.40;;
43857;SDS011;29507;51.284;5.758;2022-09-09T11:01:19;3.63;;;0.90;;
43857;SDS011;29507;51.284;5.758;2022-09-09T11:03:55;6.30;;;1.20;;
43857;SDS011;29507;51.284;5.758;2022-09-09T11:06:31;3.13;;;1.00;;
43857;SDS011;29507;51.284;5.758;2022-09-09T11:09:02;6.95;;;1.17;;
43857;SDS011;29507;51.284;5.758;2022-09-09T11:21:55;4.43;;;1.08;;
43857;SDS011;29507;51.284;5.758;2022-09-09T11:27:14;8.68;;;1.55;;
43857;SDS011;29507;51.284;5.758;2022-09-09T11:29:49;11.07;;;1.92;;
43857;SDS011;29507;51.284;5.758;2022-09-09T11:35:24;6.80;;;1.50;;
43857;SDS011;29507;51.284;5.758;2022-09-09T11:40:53;10.40;;;1.83;;
43857;SDS011;29507;51.284;5.758;2022-09-09T11:43:23;8.48;;;1.92;;
43857;SDS011;29507;51.284;5.758;2022-09-09T11:45:55;3.72;;;1.35;;
43857;SDS011;29507;51.284;5.758;2022-09-09T11:48:29;5.55;;;1.50;;
43857;SDS011;29507;51.284;5.758;2022-09-09T11:50:59;4.25;;;1.25;;
43857;SDS011;29507;51.284;5.758;2022-09-09T11:53:32;4.28;;;1.00;;
43857;SDS011;29507;51.284;5.758;2022-09-09T11:56:02;4.88;;;1.52;;
43857;SDS011;29507;51.284;5.758;2022-09-09T11:59:00;3.92;;;1.10;;
43857;SDS011;29507;51.284;5.758;2022-09-09T12:04:14;5.40;;;1.38;;
43857;SDS011;29507;51.284;5.758;2022-09-09T12:11:53;4.13;;;1.35;;
43857;SDS011;29507;51.284;5.758;2022-09-09T12:14:44;4.45;;;1.30;;
43857;SDS011;29507;51.284;5.758;2022-09-09T12:17:22;3.92;;;1.25;;
43857;SDS011;29507;51.284;5.758;2022-09-09T12:31:31;5.95;;;1.30;;
43857;SDS011;29507;51.284;5.758;2022-09-09T12:34:06;5.13;;;1.65;;
43857;SDS011;29507;51.284;5.758;2022-09-09T12:36:40;7.03;;;1.60;;
43857;SDS011;29507;51.284;5.758;2022-09-09T12:39:10;3.13;;;1.40;;
43857;SDS011;29507;51.284;5.758;2022-09-09T12:41:52;6.93;;;1.50;;
43857;SDS011;29507;51.284;5.758;2022-09-09T12:44:25;6.13;;;1.23;;
43857;SDS011;29507;51.284;5.758;2022-09-09T12:46:53;4.05;;;2.13;;
43857;SDS011;29507;51.284;5.758;2022-09-09T12:49:28;11.25;;;1.88;;
43857;SDS011;29507;51.284;5.758;2022-09-09T12:52:24;4.32;;;1.17;;
43857;SDS011;29507;51.284;5.758;2022-09-09T12:54:55;4.75;;;1.17;;
43857;SDS011;29507;51.284;5.758;2022-09-09T12:57:23;5.00;;;1.10;;
43857;SDS011;29507;51.284;5.758;2022-09-09T12:59:50;5.53;;;1.08;;
43857;SDS011;29507;51.284;5.758;2022-09-09T13:04:49;6.07;;;1.30;;
43857;SDS011;29507;51.284;5.758;2022-09-09T13:07:16;4.72;;;1.08;;
43857;SDS011;29507;51.284;5.758;2022-09-09T13:09:44;5.20;;;1.20;;
43857;SDS011;29507;51.284;5.758;2022-09-09T13:12:14;5.15;;;1.85;;
43857;SDS011;29507;51.284;5.758;2022-09-09T13:14:43;4.10;;;0.70;;
43857;SDS011;29507;51.284;5.758;2022-09-09T13:19:46;4.05;;;0.90;;
43857;SDS011;29507;51.284;5.758;2022-09-09T13:22:21;5.00;;;1.35;;
43857;SDS011;29507;51.284;5.758;2022-09-09T13:25:00;6.40;;;1.27;;
43857;SDS011;29507;51.284;5.758;2022-09-09T13:27:35;2.70;;;0.65;;
43857;SDS011;29507;51.284;5.758;2022-09-09T13:35:27;6.63;;;1.27;;
43857;SDS011;29507;51.284;5.758;2022-09-09T13:37:52;2.65;;;0.60;;
43857;SDS011;29507;51.284;5.758;2022-09-09T13:40:22;4.53;;;0.80;;
43857;SDS011;29507;51.284;5.758;2022-09-09T13:42:51;4.45;;;0.93;;
43857;SDS011;29507;51.284;5.758;2022-09-09T13:45:19;3.85;;;0.60;;
43857;SDS011;29507;51.284;5.758;2022-09-09T13:47:47;3.53;;;0.75;;
43857;SDS011;29507;51.284;5.758;2022-09-09T13:52:54;4.13;;;1.00;;
43857;SDS011;29507;51.284;5.758;2022-09-09T13:55:21;4.45;;;0.80;;
43857;SDS011;29507;51.284;5.758;2022-09-09T13:57:52;4.30;;;1.00;;
43857;SDS011;29507;51.284;5.758;2022-09-09T14:00:19;2.53;;;0.73;;
43857;SDS011;29507;51.284;5.758;2022-09-09T14:02:45;2.22;;;0.90;;
43857;SDS011;29507;51.284;5.758;2022-09-09T14:05:12;3.63;;;0.63;;
43857;SDS011;29507;51.284;5.758;2022-09-09T14:07:38;5.28;;;0.82;;
43857;SDS011;29507;51.284;5.758;2022-09-09T14:10:05;5.15;;;0.80;;
43857;SDS011;29507;51.284;5.758;2022-09-09T14:12:31;5.90;;;1.45;;
43857;SDS011;29507;51.284;5.758;2022-09-09T14:14:57;5.68;;;1.10;;
43857;SDS011;29507;51.284;5.758;2022-09-09T14:17:24;5.15;;;0.90;;
43857;SDS011;29507;51.284;5.758;2022-09-09T14:19:54;3.30;;;0.80;;
43857;SDS011;29507;51.284;5.758;2022-09-09T14:22:21;4.35;;;0.70;;
43857;SDS011;29507;51.284;5.758;2022-09-09T14:24:47;4.07;;;0.85;;
43857;SDS011;29507;51.284;5.758;2022-09-09T14:27:12;4.65;;;0.90;;
43857;SDS011;29507;51.284;5.758;2022-09-09T14:29:38;3.80;;;1.15;;
43857;SDS011;29507;51.284;5.758;2022-09-09T14:32:03;6.00;;;1.55;;
43857;SDS011;29507;51.284;5.758;2022-09-09T14:34:29;4.97;;;0.80;;
43857;SDS011;29507;51.284;5.758;2022-09-09T14:36:57;2.65;;;0.63;;
43857;SDS011;29507;51.284;5.758;2022-09-09T14:39:23;4.65;;;1.00;;
43857;SDS011;29507;51.284;5.758;2022-09-09T14:41:48;4.72;;;0.90;;
43857;SDS011;29507;51.284;5.758;2022-09-09T14:44:14;2.72;;;0.70;;
43857;SDS011;29507;51.284;5.758;2022-09-09T14:46:41;7.22;;;1.65;;
43857;SDS011;29507;51.284;5.758;2022-09-09T14:49:07;2.95;;;0.70;;
43857;SDS011;29507;51.284;5.758;2022-09-09T14:51:32;1.90;;;1.02;;
43857;SDS011;29507;51.284;5.758;2022-09-09T14:53:59;3.75;;;0.80;;
43857;SDS011;29507;51.284;5.758;2022-09-09T14:56:26;3.08;;;0.98;;
43857;SDS011;29507;51.284;5.758;2022-09-09T14:58:57;3.05;;;0.88;;
43857;SDS011;29507;51.284;5.758;2022-09-09T15:01:25;6.30;;;0.88;;
43857;SDS011;29507;51.284;5.758;2022-09-09T15:03:54;4.88;;;1.10;;
43857;SDS011;29507;51.284;5.758;2022-09-09T15:06:23;3.15;;;0.77;;
43857;SDS011;29507;51.284;5.758;2022-09-09T15:08:50;3.63;;;0.80;;
43857;SDS011;29507;51.284;5.758;2022-09-09T15:11:17;4.25;;;1.00;;
43857;SDS011;29507;51.284;5.758;2022-09-09T15:13:43;6.80;;;1.30;;
43857;SDS011;29507;51.284;5.758;2022-09-09T15:16:16;2.63;;;0.57;;
43857;SDS011;29507;51.284;5.758;2022-09-09T15:18:43;4.05;;;0.70;;
43857;SDS011;29507;51.284;5.758;2022-09-09T15:21:15;2.65;;;0.68;;
43857;SDS011;29507;51.284;5.758;2022-09-09T15:23:43;2.33;;;0.65;;
43857;SDS011;29507;51.284;5.758;2022-09-09T15:26:09;2.13;;;0.50;;
43857;SDS011;29507;51.284;5.758;2022-09-09T15:28:36;3.10;;;1.25;;
43857;SDS011;29507;51.284;5.758;2022-09-09T15:31:09;3.28;;;0.80;;
43857;SDS011;29507;51.284;5.758;2022-09-09T15:33:39;2.65;;;0.75;;
43857;SDS011;29507;51.284;5.758;2022-09-09T15:36:21;3.42;;;0.70;;
43857;SDS011;29507;51.284;5.758;2022-09-09T15:38:49;3.22;;;0.73;;
43857;SDS011;29507;51.284;5.758;2022-09-09T15:41:16;4.22;;;0.93;;
43857;SDS011;29507;51.284;5.758;2022-09-09T15:43:43;3.60;;;0.82;;
43857;SDS011;29507;51.284;5.758;2022-09-09T15:46:30;2.72;;;0.70;;
43857;SDS011;29507;51.284;5.758;2022-09-09T15:52:18;3.53;;;0.85;;
43857;SDS011;29507;51.284;5.758;2022-09-09T15:54:55;2.15;;;0.60;;
43857;SDS011;29507;51.284;5.758;2022-09-09T15:57:48;2.30;;;0.52;;
43857;SDS011;29507;51.284;5.758;2022-09-09T16:00:36;3.85;;;0.68;;
43857;SDS011;29507;51.284;5.758;2022-09-09T16:03:10;5.28;;;0.88;;
43857;SDS011;29507;51.284;5.758;2022-09-09T16:09:05;4.55;;;0.90;;
43857;SDS011;29507;51.284;5.758;2022-09-09T16:11:32;2.97;;;1.00;;
43857;SDS011;29507;51.284;5.758;2022-09-09T16:14:09;4.95;;;0.88;;
43857;SDS011;29507;51.284;5.758;2022-09-09T16:19:33;3.65;;;0.90;;
43857;SDS011;29507;51.284;5.758;2022-09-09T16:21:59;3.95;;;0.70;;
43857;SDS011;29507;51.284;5.758;2022-09-09T16:24:25;4.50;;;0.93;;
43857;SDS011;29507;51.284;5.758;2022-09-09T16:26:52;3.97;;;0.90;;
43857;SDS011;29507;51.284;5.758;2022-09-09T16:29:19;1.83;;;0.63;;
43857;SDS011;29507;51.284;5.758;2022-09-09T16:31:47;2.88;;;1.13;;
43857;SDS011;29507;51.284;5.758;2022-09-09T16:34:13;2.25;;;0.70;;
43857;SDS011;29507;51.284;5.758;2022-09-09T16:36:41;2.70;;;0.88;;
43857;SDS011;29507;51.284;5.758;2022-09-09T16:39:14;2.75;;;1.02;;
43857;SDS011;29507;51.284;5.758;2022-09-09T16:41:42;3.03;;;0.95;;
43857;SDS011;29507;51.284;5.758;2022-09-09T16:44:10;2.88;;;0.90;;
43857;SDS011;29507;51.284;5.758;2022-09-09T16:46:38;2.25;;;0.73;;
43857;SDS011;29507;51.284;5.758;2022-09-09T16:49:06;5.85;;;1.25;;
43857;SDS011;29507;51.284;5.758;2022-09-09T16:51:34;7.38;;;0.98;;
43857;SDS011;29507;51.284;5.758;2022-09-09T16:54:06;7.38;;;1.10;;
43857;SDS011;29507;51.284;5.758;2022-09-09T16:56:33;3.92;;;1.25;;
43857;SDS011;29507;51.284;5.758;2022-09-09T16:59:06;3.15;;;1.05;;
43857;SDS011;29507;51.284;5.758;2022-09-09T17:01:38;6.88;;;1.20;;
43857;SDS011;29507;51.284;5.758;2022-09-09T17:04:07;3.83;;;1.10;;
43857;SDS011;29507;51.284;5.758;2022-09-09T17:06:48;4.75;;;1.17;;
43857;SDS011;29507;51.284;5.758;2022-09-09T17:09:59;3.63;;;1.20;;
43857;SDS011;29507;51.284;5.758;2022-09-09T17:12:19;3.08;;;0.93;;
43857;SDS011;29507;51.284;5.758;2022-09-09T17:14:49;3.50;;;1.00;;
43857;SDS011;29507;51.284;5.758;2022-09-09T17:17:15;7.38;;;1.08;;
43857;SDS011;29507;51.284;5.758;2022-09-09T17:19:51;2.83;;;0.60;;
43857;SDS011;29507;51.284;5.758;2022-09-09T17:22:20;2.95;;;0.90;;
43857;SDS011;29507;51.284;5.758;2022-09-09T17:24:51;2.75;;;0.70;;
43857;SDS011;29507;51.284;5.758;2022-09-09T17:27:39;1.95;;;0.80;;
43857;SDS011;29507;51.284;5.758;2022-09-09T17:30:05;2.92;;;0.90;;
43857;SDS011;29507;51.284;5.758;2022-09-09T17:32:35;1.45;;;0.50;;
43857;SDS011;29507;51.284;5.758;2022-09-09T17:35:01;1.48;;;0.70;;
43857;SDS011;29507;51.284;5.758;2022-09-09T17:37:27;2.42;;;0.95;;
43857;SDS011;29507;51.284;5.758;2022-09-09T17:39:53;3.83;;;1.10;;
43857;SDS011;29507;51.284;5.758;2022-09-09T17:42:18;5.10;;;1.05;;